createdAt,value
2022-08-17T00:02:21.173Z,5.28
2022-08-17T00:05:29.453Z,6.13
2022-08-17T00:08:33.220Z,5.88
2022-08-17T00:11:36.488Z,5.93
2022-08-17T00:14:37.838Z,5.43
2022-08-17T00:17:41.991Z,5.65
2022-08-17T00:20:43.624Z,6.20
2022-08-17T00:23:49.019Z,5.68
2022-08-17T00:26:50.911Z,6.32
2022-08-17T00:29:52.381Z,6.00
2022-08-17T00:33:14.003Z,7.40
2022-08-17T00:36:16.002Z,4.93
2022-08-17T00:39:17.416Z,6.28
2022-08-17T00:42:18.820Z,7.30
2022-08-17T00:45:20.545Z,6.32
2022-08-17T00:48:30.026Z,5.80
2022-08-17T00:51:35.021Z,5.35
2022-08-17T00:54:40.960Z,5.80
2022-08-17T00:57:45.068Z,6.63
2022-08-17T01:00:46.998Z,6.03
2022-08-17T01:03:48.810Z,7.10
2022-08-17T01:06:51.079Z,6.43
2022-08-17T01:09:53.305Z,7.80
2022-08-17T01:12:54.793Z,6.13
2022-08-17T01:16:04.427Z,6.20
2022-08-17T01:19:08.938Z,5.70
2022-08-17T01:22:14.222Z,6.80
2022-08-17T01:25:15.895Z,5.95
2022-08-17T01:28:52.663Z,6.80
2022-08-17T01:31:44.341Z,6.45
2022-08-17T01:34:50.203Z,6.05
2022-08-17T01:37:52.298Z,6.43
2022-08-17T01:40:57.992Z,6.28
2022-08-17T01:44:01.450Z,6.53
2022-08-17T01:47:03.165Z,6.30
2022-08-17T01:50:09.310Z,6.45
2022-08-17T01:53:13.302Z,6.30
2022-08-17T01:56:16.311Z,5.95
2022-08-17T01:59:18.571Z,6.70
2022-08-17T02:02:30.953Z,7.70
2022-08-17T02:05:33.030Z,7.40
2022-08-17T02:08:38.690Z,7.10
2022-08-17T02:11:40.969Z,6.78
2022-08-17T02:14:42.657Z,7.82
2022-08-17T02:17:44.513Z,6.80
2022-08-17T02:20:45.809Z,6.88
2022-08-17T02:23:48.246Z,6.78
2022-08-17T02:26:49.810Z,6.75
2022-08-17T02:29:51.106Z,7.00
2022-08-17T02:32:52.933Z,6.53
2022-08-17T02:35:54.253Z,7.28
2022-08-17T02:38:55.534Z,7.22
2022-08-17T02:42:01.483Z,9.82
2022-08-17T02:45:05.113Z,7.85
2022-08-17T02:48:06.511Z,6.53
2022-08-17T02:51:07.847Z,6.85
2022-08-17T02:54:39.752Z,7.50
2022-08-17T02:57:30.567Z,7.30
2022-08-17T03:00:36.345Z,7.72
2022-08-17T03:03:38.157Z,8.02
2022-08-17T03:06:39.478Z,7.60
2022-08-17T03:09:40.795Z,8.13
2022-08-17T03:12:43.239Z,8.45
2022-08-17T03:15:45.235Z,8.13
2022-08-17T03:18:46.606Z,7.15
2022-08-17T03:21:54.953Z,8.30
2022-08-17T03:24:56.900Z,9.27
2022-08-17T03:27:58.213Z,8.13
2022-08-17T03:30:59.598Z,8.00
2022-08-17T03:34:01.075Z,9.88
2022-08-17T03:37:02.411Z,10.07
2022-08-17T03:40:05.225Z,8.43
2022-08-17T03:43:08.855Z,7.75
2022-08-17T03:46:35.342Z,9.68
2022-08-17T03:49:55.372Z,8.02
2022-08-17T03:53:15.355Z,8.30
2022-08-17T03:56:35.416Z,8.02
2022-08-17T03:59:37.120Z,8.00
2022-08-17T04:02:38.615Z,8.23
2022-08-17T04:05:40.020Z,8.32
2022-08-17T04:08:41.368Z,9.25
2022-08-17T04:11:42.642Z,9.18
2022-08-17T04:14:52.961Z,7.95
2022-08-17T04:17:55.630Z,7.97
2022-08-17T04:20:56.967Z,7.18
2022-08-17T04:24:00.438Z,7.47
2022-08-17T04:27:01.839Z,7.82
2022-08-17T04:30:04.038Z,6.47
2022-08-17T04:33:09.656Z,8.05
2022-08-17T04:36:12.282Z,7.18
2022-08-17T04:39:13.563Z,6.55
2022-08-17T04:42:17.223Z,7.38
2022-08-17T04:45:18.602Z,8.10
2022-08-17T04:48:20.751Z,6.88
2022-08-17T04:51:23.936Z,8.02
2022-08-17T04:54:25.244Z,7.07
2022-08-17T04:57:26.538Z,6.70
2022-08-17T05:00:27.917Z,5.75
2022-08-17T05:03:29.249Z,7.10
2022-08-17T05:06:30.738Z,8.30
2022-08-17T05:09:32.061Z,6.93
2022-08-17T05:12:33.409Z,8.50
2022-08-17T05:15:36.011Z,8.82
2022-08-17T05:18:38.866Z,7.95
2022-08-17T05:21:40.222Z,8.00
2022-08-17T05:24:43.455Z,7.13
2022-08-17T05:27:52.796Z,7.18
2022-08-17T05:30:56.004Z,9.15
2022-08-17T05:33:57.555Z,8.65
2022-08-17T05:36:59.613Z,8.60
2022-08-17T05:40:00.990Z,8.50
2022-08-17T05:43:05.227Z,7.05
2022-08-17T05:46:06.597Z,7.35
2022-08-17T05:49:08.306Z,8.35
2022-08-17T05:52:14.251Z,7.78
2022-08-17T05:55:29.445Z,10.60
2022-08-17T05:58:33.775Z,8.73
2022-08-17T06:01:40.720Z,9.57
2022-08-17T06:04:42.051Z,9.35
2022-08-17T06:07:43.370Z,7.72
2022-08-17T06:10:59.278Z,10.13
2022-08-17T06:14:23.466Z,10.38
2022-08-17T06:17:25.146Z,9.23
2022-08-17T06:20:28.773Z,9.52
2022-08-17T06:23:39.023Z,10.15
2022-08-17T06:26:43.414Z,8.45
2022-08-17T06:29:50.625Z,9.18
2022-08-17T06:32:52.762Z,7.85
2022-08-17T06:36:09.565Z,8.68
2022-08-17T06:39:37.568Z,11.38
2022-08-17T06:43:05.381Z,10.98
2022-08-17T06:46:12.975Z,7.85
2022-08-17T06:49:18.210Z,7.97
2022-08-17T06:52:45.696Z,9.18
2022-08-17T06:55:46.512Z,8.10
2022-08-17T06:58:49.504Z,8.23
2022-08-17T07:01:52.091Z,8.15
2022-08-17T07:04:53.857Z,8.65
2022-08-17T07:08:11.599Z,8.70
2022-08-17T07:11:21.571Z,7.78
2022-08-17T07:14:23.576Z,7.60
2022-08-17T07:17:46.542Z,8.52
2022-08-17T07:20:49.997Z,7.25
2022-08-17T07:23:58.783Z,8.90
2022-08-17T07:27:04.732Z,8.27
2022-08-17T07:30:10.936Z,7.57
2022-08-17T07:33:14.067Z,7.13
2022-08-17T07:36:27.833Z,8.02
2022-08-17T07:39:31.286Z,8.48
2022-08-17T07:42:34.357Z,6.20
2022-08-17T07:45:55.485Z,6.70
2022-08-17T07:49:12.542Z,5.97
2022-08-17T07:55:40.452Z,6.93
2022-08-17T07:58:42.198Z,6.53
2022-08-17T08:02:00.588Z,6.07
2022-08-17T08:05:06.759Z,6.60
2022-08-17T08:08:27.072Z,5.60
2022-08-17T08:11:33.774Z,6.43
2022-08-17T08:14:38.260Z,6.22
2022-08-17T08:17:48.392Z,6.97
2022-08-17T08:21:01.851Z,6.13
2022-08-17T08:24:09.684Z,5.78
2022-08-17T08:27:27.051Z,6.70
2022-08-17T08:30:33.035Z,5.68
2022-08-17T08:33:34.508Z,6.55
2022-08-17T08:37:14.670Z,5.95
2022-08-17T08:40:19.678Z,5.72
2022-08-17T08:43:52.997Z,5.38
2022-08-17T08:47:14.264Z,6.90
2022-08-17T08:50:36.954Z,5.45
2022-08-17T08:54:01.407Z,7.10
2022-08-17T08:57:26.866Z,6.90
2022-08-17T09:00:36.044Z,6.28
2022-08-17T09:03:52.732Z,6.57
2022-08-17T09:07:04.700Z,6.78
2022-08-17T09:10:25.432Z,7.40
2022-08-17T09:13:30.804Z,6.00
2022-08-17T09:16:33.106Z,6.43
2022-08-17T09:19:46.172Z,5.38
2022-08-17T09:22:50.054Z,5.13
2022-08-17T09:25:58.233Z,6.20
2022-08-17T09:29:05.625Z,7.40
2022-08-17T09:32:17.475Z,5.45
2022-08-17T09:35:25.049Z,6.80
2022-08-17T09:38:46.291Z,5.50
2022-08-17T09:41:52.763Z,5.95
2022-08-17T09:45:12.575Z,6.65
2022-08-17T09:48:22.847Z,6.00
2022-08-17T09:51:34.800Z,5.40
2022-08-17T09:54:39.527Z,6.65
2022-08-17T09:58:00.258Z,5.20
2022-08-17T10:01:20.368Z,5.57
2022-08-17T10:04:42.873Z,7.70
2022-08-17T10:07:47.102Z,6.43
2022-08-17T10:11:07.306Z,6.38
2022-08-17T10:14:36.848Z,6.55
2022-08-17T10:17:37.908Z,5.05
2022-08-17T10:20:51.468Z,7.05
2022-08-17T10:24:17.247Z,6.70
2022-08-17T10:27:19.850Z,7.15
2022-08-17T10:30:23.034Z,8.38
2022-08-17T10:33:27.934Z,5.53
2022-08-17T10:36:38.009Z,7.10
2022-08-17T10:39:52.215Z,6.85
2022-08-17T10:42:57.414Z,7.68
2022-08-17T10:46:30.585Z,8.07
2022-08-17T10:49:33.963Z,6.75
2022-08-17T10:52:41.861Z,7.57
2022-08-17T10:56:05.598Z,7.40
2022-08-17T10:59:07.352Z,7.50
2022-08-17T11:02:12.188Z,5.93
2022-08-17T11:05:18.964Z,6.35
2022-08-17T11:08:38.733Z,7.40
2022-08-17T11:11:49.874Z,7.68
2022-08-17T11:15:00.399Z,5.82
2022-08-17T11:18:22.181Z,7.50
2022-08-17T11:21:26.345Z,7.00
2022-08-17T11:24:47.890Z,6.43
2022-08-17T11:27:53.519Z,5.68
2022-08-17T11:30:56.199Z,5.72
2022-08-17T11:34:06.503Z,6.05
2022-08-17T11:37:28.172Z,6.05
2022-08-17T11:40:38.851Z,5.68
2022-08-17T11:43:59.127Z,5.35
2022-08-17T11:47:34.307Z,4.72
2022-08-17T11:51:06.643Z,5.35
2022-08-17T11:54:31.664Z,5.45
2022-08-17T11:57:45.904Z,4.78
2022-08-17T12:03:55.967Z,5.20
2022-08-17T12:07:00.798Z,5.13
2022-08-17T12:10:02.233Z,4.10
2022-08-17T12:13:14.571Z,4.78
2022-08-17T12:16:17.386Z,4.53
2022-08-17T12:19:20.953Z,3.78
2022-08-17T12:22:25.348Z,4.20
2022-08-17T12:25:32.773Z,5.00
2022-08-17T12:28:35.633Z,5.15
2022-08-17T12:31:47.103Z,4.53
2022-08-17T12:34:49.984Z,4.50
2022-08-17T12:37:51.588Z,4.40
2022-08-17T12:40:58.101Z,4.53
2022-08-17T12:44:12.206Z,4.65
2022-08-17T12:47:22.558Z,4.57
2022-08-17T12:50:29.221Z,4.38
2022-08-17T12:53:32.449Z,4.15
2022-08-17T12:56:33.968Z,6.13
2022-08-17T12:59:39.645Z,4.85
2022-08-17T13:02:46.987Z,5.18
2022-08-17T13:06:00.663Z,6.13
2022-08-17T13:09:09.608Z,5.82
2022-08-17T13:12:11.170Z,5.30
2022-08-17T13:15:24.287Z,5.22
2022-08-17T13:18:46.058Z,5.30
2022-08-17T13:21:51.376Z,5.18
2022-08-17T13:24:54.284Z,4.50
2022-08-17T13:27:56.046Z,6.30
2022-08-17T13:31:28.439Z,5.32
2022-08-17T13:34:29.764Z,4.63
2022-08-17T13:37:33.301Z,4.85
2022-08-17T13:40:53.170Z,4.75
2022-08-17T13:43:54.650Z,4.88
2022-08-17T13:46:57.160Z,4.25
2022-08-17T13:49:58.708Z,6.40
2022-08-17T13:53:00.190Z,5.18
2022-08-17T13:56:01.459Z,5.20
2022-08-17T13:59:07.965Z,4.20
2022-08-17T14:02:09.948Z,3.92
2022-08-17T14:05:11.318Z,4.20
2022-08-17T14:08:14.103Z,3.50
2022-08-17T14:11:16.913Z,3.70
2022-08-17T14:14:19.664Z,3.92
2022-08-17T14:20:24.648Z,3.85
2022-08-17T14:23:26.043Z,3.53
2022-08-17T14:26:27.546Z,3.53
2022-08-17T14:29:29.827Z,4.30
2022-08-17T14:32:32.915Z,4.18
2022-08-17T14:35:34.869Z,3.90
2022-08-17T14:38:37.262Z,3.90
2022-08-17T14:41:39.022Z,4.63
2022-08-17T14:44:40.468Z,5.30
2022-08-17T14:47:41.792Z,3.50
2022-08-17T14:50:43.371Z,3.47
2022-08-17T14:53:45.784Z,3.40
2022-08-17T14:56:47.097Z,3.50
2022-08-17T14:59:56.612Z,4.38
2022-08-17T15:02:59.119Z,4.03
2022-08-17T15:06:00.463Z,3.80
2022-08-17T15:09:02.283Z,3.92
2022-08-17T15:12:03.900Z,4.28
2022-08-17T15:15:06.254Z,4.10
2022-08-17T15:18:08.301Z,3.70
2022-08-17T15:21:10.680Z,3.92
2022-08-17T15:24:11.990Z,3.30
2022-08-17T15:27:13.277Z,4.45
2022-08-17T15:30:15.525Z,3.45
2022-08-17T15:33:17.970Z,4.88
2022-08-17T15:36:19.608Z,4.13
2022-08-17T15:39:22.043Z,4.63
2022-08-17T15:42:23.586Z,3.85
2022-08-17T15:45:26.933Z,3.95
2022-08-17T15:48:41.196Z,3.55
2022-08-17T15:51:42.526Z,3.58
2022-08-17T15:54:48.815Z,3.75
2022-08-17T15:57:50.560Z,4.10
2022-08-17T16:01:15.154Z,3.55
2022-08-17T16:04:30.401Z,5.10
2022-08-17T16:07:32.703Z,4.15
2022-08-17T16:10:36.191Z,3.97
2022-08-17T16:13:38.742Z,4.45
2022-08-17T16:16:41.308Z,4.70
2022-08-17T16:19:42.733Z,3.90
2022-08-17T16:22:45.413Z,4.57
2022-08-17T16:25:53.605Z,4.20
2022-08-17T16:28:56.105Z,4.97
2022-08-17T16:31:57.514Z,5.20
2022-08-17T16:35:07.271Z,4.38
2022-08-17T16:38:09.509Z,7.70
2022-08-17T16:41:10.865Z,6.45
2022-08-17T16:44:15.439Z,4.80
2022-08-17T16:47:19.243Z,4.30
2022-08-17T16:50:22.349Z,4.15
2022-08-17T16:53:23.748Z,4.30
2022-08-17T16:56:25.364Z,4.55
2022-08-17T16:59:30.369Z,6.20
2022-08-17T17:02:36.289Z,4.53
2022-08-17T17:05:55.175Z,4.97
2022-08-17T17:09:00.307Z,4.00
2022-08-17T17:12:03.425Z,4.35
2022-08-17T17:15:05.981Z,6.68
2022-08-17T17:18:11.362Z,4.60
2022-08-17T17:21:13.931Z,3.75
2022-08-17T17:24:18.462Z,5.10
2022-08-17T17:27:29.411Z,6.10
2022-08-17T17:30:49.300Z,4.32
2022-08-17T17:33:56.256Z,4.55
2022-08-17T17:36:58.690Z,4.22
2022-08-17T17:40:02.521Z,4.35
2022-08-17T17:43:34.865Z,4.47
2022-08-17T17:46:33.307Z,4.20
2022-08-17T17:49:37.017Z,7.15
2022-08-17T17:52:38.298Z,6.72
2022-08-17T17:55:44.451Z,4.30
2022-08-17T17:58:55.627Z,5.75
2022-08-17T18:02:35.818Z,4.57
2022-08-17T18:05:37.225Z,4.30
2022-08-17T18:08:46.121Z,5.50
2022-08-17T18:11:55.001Z,5.55
2022-08-17T18:15:09.975Z,4.15
2022-08-17T18:18:14.420Z,5.57
2022-08-17T18:21:23.942Z,4.20
2022-08-17T18:24:32.619Z,6.63
2022-08-17T18:27:36.851Z,5.40
2022-08-17T18:30:38.286Z,6.40
2022-08-17T18:33:42.230Z,6.03
2022-08-17T18:36:43.561Z,5.22
2022-08-17T18:39:44.910Z,6.85
2022-08-17T18:43:04.978Z,6.00
2022-08-17T18:46:17.356Z,7.45
2022-08-17T18:49:30.400Z,5.38
2022-08-17T18:52:32.706Z,5.97
2022-08-17T18:55:34.136Z,6.22
2022-08-17T18:58:39.502Z,5.68
2022-08-17T19:01:46.977Z,5.57
2022-08-17T19:05:33.588Z,5.35
2022-08-17T19:08:35.894Z,6.50
2022-08-17T19:11:37.478Z,6.30
2022-08-17T19:14:39.138Z,6.65
2022-08-17T19:17:46.416Z,7.00
2022-08-17T19:20:53.575Z,5.22
2022-08-17T19:24:07.836Z,5.82
2022-08-17T19:27:15.590Z,5.95
2022-08-17T19:30:20.243Z,6.35
2022-08-17T19:33:21.732Z,6.05
2022-08-17T19:36:35.813Z,7.43
2022-08-17T19:39:46.362Z,5.43
2022-08-17T19:42:55.235Z,5.47
2022-08-17T19:46:01.324Z,5.40
2022-08-17T19:49:18.547Z,5.75
2022-08-17T19:52:41.635Z,5.22
2022-08-17T19:56:00.101Z,6.35
2022-08-17T19:59:08.103Z,7.25
2022-08-17T20:02:19.673Z,5.78
2022-08-17T20:05:24.100Z,5.05
2022-08-17T20:08:34.389Z,6.05
2022-08-17T20:11:46.535Z,5.97
2022-08-17T20:14:53.740Z,5.90
2022-08-17T20:17:58.954Z,6.47
2022-08-17T20:21:04.956Z,5.97
2022-08-17T20:24:20.164Z,6.43
2022-08-17T20:27:29.493Z,7.57
2022-08-17T20:30:37.952Z,6.57
2022-08-17T20:33:39.249Z,6.43
2022-08-17T20:36:56.979Z,5.13
2022-08-17T20:39:58.316Z,7.53
2022-08-17T20:43:19.668Z,7.30
2022-08-17T20:46:24.012Z,6.38
2022-08-17T20:49:47.170Z,6.93
2022-08-17T20:52:48.524Z,7.43
2022-08-17T20:55:52.268Z,6.47
2022-08-17T20:58:54.380Z,6.28
2022-08-17T21:02:18.814Z,7.25
2022-08-17T21:05:34.351Z,6.32
2022-08-17T21:08:57.814Z,9.05
2022-08-17T21:12:04.062Z,6.00
2022-08-17T21:15:10.485Z,7.47
2022-08-17T21:18:11.937Z,7.68
2022-08-17T21:21:25.874Z,7.30
2022-08-17T21:24:30.230Z,5.95
2022-08-17T21:27:46.223Z,6.22
2022-08-17T21:30:55.425Z,7.63
2022-08-17T21:34:14.942Z,6.97
2022-08-17T21:37:23.287Z,6.13
2022-08-17T21:40:26.983Z,6.15
2022-08-17T21:43:32.278Z,7.75
2022-08-17T21:46:37.520Z,6.65
2022-08-17T21:49:39.611Z,6.32
2022-08-17T21:52:40.982Z,6.20
2022-08-17T21:55:42.342Z,8.20
2022-08-17T21:58:48.286Z,7.82
2022-08-17T22:01:52.762Z,6.78
2022-08-17T22:04:56.959Z,7.32
2022-08-17T22:08:03.109Z,6.45
2022-08-17T22:11:04.471Z,5.93
2022-08-17T22:14:16.032Z,6.65
2022-08-17T22:17:23.470Z,5.75
2022-08-17T22:20:24.847Z,6.38
2022-08-17T22:23:46.964Z,5.10
2022-08-17T22:27:07.413Z,8.57
2022-08-17T22:30:29.134Z,5.93
2022-08-17T22:33:33.527Z,6.18
2022-08-17T22:36:36.197Z,5.07
2022-08-17T22:39:40.255Z,5.25
2022-08-17T22:42:48.634Z,5.88
2022-08-17T22:45:53.204Z,6.03
2022-08-17T22:48:55.849Z,7.63
2022-08-17T22:52:01.630Z,6.00
2022-08-17T22:55:32.821Z,7.45
2022-08-17T22:58:59.223Z,5.18
2022-08-17T23:02:12.430Z,6.30
2022-08-17T23:05:13.755Z,6.28
2022-08-17T23:08:20.935Z,5.82
2022-08-17T23:11:36.593Z,6.57
2022-08-17T23:14:49.354Z,6.45
2022-08-17T23:17:50.737Z,7.72
2022-08-17T23:20:52.221Z,6.38
2022-08-17T23:23:53.534Z,5.60
2022-08-17T23:26:57.151Z,6.07
2022-08-17T23:29:58.482Z,7.63
2022-08-17T23:33:01.137Z,5.30
2022-08-17T23:36:02.512Z,7.13
2022-08-17T23:39:04.594Z,5.20
2022-08-17T23:42:09.423Z,5.88
2022-08-17T23:45:10.765Z,6.93
2022-08-17T23:48:12.063Z,7.30
2022-08-17T23:51:18.904Z,7.20
2022-08-17T23:54:20.217Z,7.10
2022-08-17T23:57:33.649Z,6.85
